»·PEaware :: AAL1524 KBOI-KSEA

AAL1524 :: KBOI-KSEA

FLIGHT INFORMATION

Flight Status: Arrived
Operator:
American Airlines
More flights by this operator :: More flights under this callsign
Pilot: Matteo S. (9898)
Aircraft: BOEING 737-800
(B738)
More flights by this aircraft type
Origin: KBOI Boise Air Terminal/Gowen
United States
Destination: KSEA Seattle-Tacoma Intl
United States
More flights between these airports :: More routes between these airports
Route: +BOI3 LICKS PREIS PDT CHINS3
File this flight plan on PilotEdge
Remarks:
Altitude:
(Current/Filed)
34,000ft
Speed:
(Current/Filed)
460kts
Departed: 06-Mar-18 09:32 AM
Arrived: 06-Mar-18 10:44 AM
Distance/Time
Traveled:
345nm/1:11
Distance/Time
To Go:
Arrived

Flight Plot

Page will automatically refresh every two minutes.

Flight plan parsing failed; only flown route is shown


Map Options




Map Legend


Flown Route
Filed Route
Departure Airport
Arrival Airport
Navaid (VOR, NDB)
Fix

Horizontal Profiles

Position Reports

Time Latitude Longitude Heading Altitude Ground
Speed
06-Mar-18 09:17 43.567255 -116.220655 24 2878ft 0kts
06-Mar-18 09:18 43.567255 -116.220655 24 2879ft 0kts
06-Mar-18 09:19 43.567255 -116.220655 24 2879ft 0kts
06-Mar-18 09:20 43.567255 -116.220655 24 2879ft 0kts
06-Mar-18 09:21 43.567255 -116.220655 24 2879ft 0kts
06-Mar-18 09:22 43.567255 -116.220655 24 2879ft 0kts
06-Mar-18 09:23 43.567255 -116.220655 24 2879ft 0kts
06-Mar-18 09:24 43.567255 -116.220655 24 2879ft 0kts
06-Mar-18 09:25 43.567255 -116.220655 24 2879ft 0kts
06-Mar-18 09:26 43.567255 -116.220655 24 2879ft 0kts
06-Mar-18 09:27 43.567255 -116.220655 24 2879ft 0kts
06-Mar-18 09:28 43.567255 -116.220655 24 2879ft 0kts
06-Mar-18 09:29 43.567255 -116.220655 24 2879ft 0kts
06-Mar-18 09:30 43.566671 -116.220672 332 2879ft 2kts
06-Mar-18 09:31 43.566346 -116.220192 294 2879ft 0kts
06-Mar-18 09:32 43.566346 -116.220192 294 2879ft 0kts
06-Mar-18 09:33 43.566884 -116.222806 263 2879ft 14kts
06-Mar-18 09:34 43.567984 -116.226695 294 2879ft 13kts
06-Mar-18 09:35 43.569833 -116.232199 294 2879ft 18kts
06-Mar-18 09:36 43.571066 -116.237537 266 2879ft 0kts
06-Mar-18 09:37 43.570849 -116.236432 125 2879ft 0kts
06-Mar-18 09:38 43.569477 -116.234654 114 2879ft 30kts
06-Mar-18 09:39 43.554259 -116.190240 117 4455ft 164kts
06-Mar-18 09:40 43.529367 -116.123506 118 6343ft 233kts
06-Mar-18 09:41 43.497317 -116.033303 115 9055ft 275kts
06-Mar-18 09:42 43.464117 -115.930014 115 11289ft 329kts
06-Mar-18 09:43 43.422861 -115.804968 115 13505ft 376kts
06-Mar-18 09:44 43.395632 -115.664821 71 15960ft 392kts
06-Mar-18 09:45 43.475964 -115.604681 332 16692ft 352kts
06-Mar-18 09:46 43.542157 -115.700399 306 19817ft 352kts
06-Mar-18 09:47 43.603664 -115.808033 305 22536ft 360kts
06-Mar-18 09:48 43.666356 -115.918262 305 24982ft 366kts
06-Mar-18 09:49 43.729073 -116.028982 304 27283ft 366kts
06-Mar-18 09:50 43.792487 -116.140037 304 29257ft 367kts
06-Mar-18 09:51 43.855160 -116.250960 304 31202ft 362kts
06-Mar-18 09:52 43.916306 -116.359581 304 32896ft 359kts
06-Mar-18 09:53 43.977455 -116.468271 303 34406ft 358kts
06-Mar-18 09:54 44.038984 -116.578848 303 34434ft 360kts
06-Mar-18 09:55 44.101247 -116.688226 309 34450ft 365kts
06-Mar-18 09:56 44.179949 -116.780175 311 34455ft 368kts
06-Mar-18 09:57 44.253275 -116.879256 310 34452ft 367kts
06-Mar-18 09:58 44.325895 -116.979168 310 34446ft 369kts
06-Mar-18 09:59 44.398944 -117.080306 309 34433ft 369kts
06-Mar-18 10:00 44.472619 -117.181857 310 34416ft 369kts
06-Mar-18 10:01 44.545400 -117.282749 309 34400ft 370kts
06-Mar-18 10:02 44.618653 -117.384882 309 34386ft 371kts
06-Mar-18 10:03 44.691894 -117.487460 309 34377ft 371kts
06-Mar-18 10:04 44.764405 -117.589428 309 34372ft 372kts
06-Mar-18 10:05 44.837964 -117.693276 309 34370ft 373kts
06-Mar-18 10:06 44.911396 -117.797344 309 34370ft 373kts
06-Mar-18 10:07 44.984448 -117.901280 309 34370ft 375kts
06-Mar-18 10:08 45.058517 -118.007066 309 34373ft 377kts
06-Mar-18 10:09 45.131856 -118.112215 309 34369ft 379kts
06-Mar-18 10:10 45.206205 -118.219244 309 34366ft 381kts
06-Mar-18 10:11 45.280704 -118.326906 309 34350ft 382kts
06-Mar-18 10:12 45.355299 -118.435143 309 34328ft 382kts
06-Mar-18 10:13 45.429891 -118.543820 309 34315ft 384kts
06-Mar-18 10:14 45.504632 -118.652719 309 34323ft 383kts
06-Mar-18 10:15 45.578118 -118.760611 309 34349ft 383kts
06-Mar-18 10:16 45.652183 -118.870146 309 34374ft 382kts
06-Mar-18 10:17 45.724861 -118.981406 305 34385ft 381kts
06-Mar-18 10:18 45.792975 -119.097831 305 34405ft 380kts
06-Mar-18 10:19 45.861458 -119.214651 305 34427ft 381kts
06-Mar-18 10:20 45.929619 -119.330883 305 34431ft 381kts
06-Mar-18 10:21 45.998054 -119.446881 305 34434ft 381kts
06-Mar-18 10:22 46.066664 -119.564201 305 34438ft 384kts
06-Mar-18 10:23 46.134896 -119.682132 305 34440ft 383kts
06-Mar-18 10:24 46.203164 -119.800376 305 34440ft 382kts
06-Mar-18 10:25 46.271321 -119.918863 305 34437ft 382kts
06-Mar-18 10:26 46.339058 -120.037264 305 34432ft 382kts
06-Mar-18 10:27 46.407253 -120.156198 305 34427ft 383kts
06-Mar-18 10:28 46.474973 -120.275517 305 34424ft 384kts
06-Mar-18 10:29 46.542410 -120.395148 305 34421ft 384kts
06-Mar-18 10:30 46.606978 -120.519446 300 34419ft 384kts
06-Mar-18 10:31 46.667870 -120.647835 301 34114ft 382kts
06-Mar-18 10:32 46.727597 -120.773973 301 31613ft 377kts
06-Mar-18 10:33 46.786327 -120.898614 301 29541ft 364kts
06-Mar-18 10:34 46.843618 -121.020451 302 26726ft 370kts
06-Mar-18 10:35 46.902728 -121.146458 303 23438ft 378kts
06-Mar-18 10:36 46.960658 -121.269900 303 20129ft 358kts
06-Mar-18 10:37 47.015606 -121.388530 303 16821ft 345kts
06-Mar-18 10:38 47.068565 -121.503311 303 13534ft 337kts
06-Mar-18 10:39 47.118089 -121.610361 303 12106ft 288kts
06-Mar-18 10:40 47.157062 -121.708769 279 11864ft 276kts
06-Mar-18 10:41 47.163722 -121.823320 275 10405ft 286kts
06-Mar-18 10:42 47.170037 -121.938798 275 8740ft 277kts
06-Mar-18 10:43 47.176070 -122.051272 275 7436ft 268kts
06-Mar-18 10:44 47.181475 -122.157074 275 5979ft 251kts
06-Mar-18 10:45 47.202565 -122.244050 324 4502ft 229kts
06-Mar-18 10:46 47.253530 -122.297374 325 3071ft 217kts
06-Mar-18 10:47 47.305769 -122.309366 1 2694ft 181kts
06-Mar-18 10:48 47.352560 -122.308767 1 1862ft 150kts
06-Mar-18 10:49 47.389405 -122.308442 2 1205ft 124kts
06-Mar-18 10:50 47.423836 -122.308257 1 605ft 123kts
06-Mar-18 10:51 47.444626 -122.307953 359 441ft 22kts
06-Mar-18 10:52 47.445101 -122.306325 180 441ft 18kts
06-Mar-18 10:53 47.441059 -122.306361 179 441ft 17kts
06-Mar-18 10:54 47.440240 -122.302599 45 441ft 10kts
06-Mar-18 10:55 47.441467 -122.301375 44 441ft 0kts
06-Mar-18 10:56 47.441467 -122.301375 44 441ft 0kts

Navigation Log

Ident Type
Flight plan parsing failed, navigation log unavailable